WetterOnline ( https://www.wetteronline.at )

Wetter aktuell Fehmarn

Aktuelles Wetter: Westermarkelsdorf (9m)

6-stündlich | Neueste Meldungen
Ortszeit Temperatur Wetter
Di, 18.06. 2:00 15.5° C wolkenlos
Mo, 17.06. 20:00 19.6° C wolkenlos
Mo, 17.06. 14:00 21.4° C wolkenlos
Mo, 17.06. 8:00 18.2° C wolkenlos
Mo, 17.06. 2:00 16.4° C leicht bewölkt
So, 16.06. 20:00 19.3° C wolkenlos
So, 16.06. 14:00 18.8° C wolkig
So, 16.06. 8:00 15.4° C leicht bewölkt
Ortszeit Temperatur Wetter
Di, 18.06. 6:10 16.7° C wolkenlos
Di, 18.06. 6:00 16.5° C leicht bewölkt
Di, 18.06. 5:50 16.5° C leicht bewölkt
Di, 18.06. 5:40 16.4° C leicht bewölkt
Di, 18.06. 5:30 16.7° C wolkig
Di, 18.06. 5:20 16.7° C wolkig
Di, 18.06. 5:00 16.8° C wolkenlos
Di, 18.06. 4:30 16.7° C wolkig
Di, 18.06. 4:00 16.9° C bewölkt
Di, 18.06. 3:30 16.4° C wolkig
Di, 18.06. 3:00 15.5° C wolkig
Ortszeit Relative Feuchte Sichtweite
Di, 18.06. 2:00 83% 35 km
Mo, 17.06. 20:00 64% 16 km
Mo, 17.06. 14:00 54% 15 km
Mo, 17.06. 8:00 70% 19 km
Mo, 17.06. 2:00 94% 5.0 km
So, 16.06. 20:00 67% 40 km
So, 16.06. 14:00 69% 9 km
So, 16.06. 8:00 81% 4.9 km
Ortszeit Relative Feuchte Sichtweite
Di, 18.06. 6:10 77% -
Di, 18.06. 6:00 78% 25 km
Di, 18.06. 5:50 78% -
Di, 18.06. 5:40 78% -
Di, 18.06. 5:30 78% 45 km
Di, 18.06. 5:20 78% -
Di, 18.06. 5:00 76% 30 km
Di, 18.06. 4:30 77% 35 km
Di, 18.06. 4:00 77% 35 km
Di, 18.06. 3:30 80% 35 km
Di, 18.06. 3:00 84% 35 km
Ortszeit Niederschlagsmenge Niederschlagsart
Di, 18.06. 2:00 0.0 l/m2 in 6 Std. -
Mo, 17.06. 20:00 0.0 l/m2 in 3 Std. -
Mo, 17.06. 14:00 0.0 l/m2 in 3 Std. -
Mo, 17.06. 8:00 0.0 l/m2 in 12 Std. -
Mo, 17.06. 2:00 0.0 l/m2 in 6 Std. -
So, 16.06. 20:00 0.0 l/m2 in 12 Std. -
So, 16.06. 14:00 0.0 l/m2 in 6 Std. -
So, 16.06. 8:00 0.1 l/m2 in 12 Std. -
Ortszeit Niederschlagsmenge Niederschlagsart
Di, 18.06. 6:10 keine Meldung -
Di, 18.06. 6:00 0.0 l/m2 in 1 Std. -
Di, 18.06. 5:50 keine Meldung -
Di, 18.06. 5:40 keine Meldung -
Di, 18.06. 5:30 0.0 l/m2 in 1 Std. -
Di, 18.06. 5:20 keine Meldung -
Di, 18.06. 5:00 0.0 l/m2 in 1 Std. -
Di, 18.06. 4:30 0.0 l/m2 in 1 Std. -
Di, 18.06. 4:00 0.0 l/m2 in 1 Std. -
Di, 18.06. 3:30 0.0 l/m2 in 1 Std. -
Di, 18.06. 3:00 0.0 l/m2 in 1 Std. -
Ortszeit Stärke Spitze Richtung
km/h Bft. km/h Grad Sektor
Di, 18.06. 2:00 17 3 22 130° SO
Mo, 17.06. 20:00 15 3 26 110° O
Mo, 17.06. 14:00 7 2 25 300° NW
Mo, 17.06. 8:00 7 2 25 210° SW
Mo, 17.06. 2:00 22 4 25 260° W
So, 16.06. 20:00 9 2 15 90° O
So, 16.06. 14:00 13 3 31 270° W
So, 16.06. 8:00 22 4 50 270° W
Ortszeit Stärke Spitze Richtung
km/h Bft. km/h Grad Sektor
Di, 18.06. 6:10 17 3 - 140° SO
Di, 18.06. 6:00 14 3 25 140° SO
Di, 18.06. 5:50 14 3 - 140° SO
Di, 18.06. 5:40 14 3 - 140° SO
Di, 18.06. 5:30 14 3 25 140° SO
Di, 18.06. 5:20 14 3 - 140° SO
Di, 18.06. 5:00 14 3 32 150° SO
Di, 18.06. 4:30 15 3 28 150° SO
Di, 18.06. 4:00 14 3 25 150° SO
Di, 18.06. 3:30 15 3 22 140° SO
Di, 18.06. 3:00 14 3 22 140° SO
Ortszeit Untergrenze Bedeckung Gattung
total tief tief mittel hoch
Di, 18.06. 2:00 - 0/8 0/8 - - -
Mo, 17.06. 20:00 - 0/8 0/8 - - -
Mo, 17.06. 14:00 - 0/8 0/8 - - -
Mo, 17.06. 8:00 - 0/8 0/8 - - -
Mo, 17.06. 2:00 2100 m 3/8 3/8 - - -
So, 16.06. 20:00 - 0/8 0/8 - - -
So, 16.06. 14:00 4800 m 8/8 8/8 - - -
So, 16.06. 8:00 10500 m 6/8 0/8 - - -
Ortszeit Bedeckungsgrad in Achtel und Wolkenuntergrenze
Di, 18.06. 6:10 keine Wolken
Di, 18.06. 6:00 1(1800m)
Di, 18.06. 5:50 1(1800m) 2(2400m)
Di, 18.06. 5:40 3(2100m) 4(2700m)
Di, 18.06. 5:30 4(2100m) 6(2400m)
Di, 18.06. 5:20 4(2100m) 6(2400m)
Di, 18.06. 5:00 keine Wolken
Di, 18.06. 4:30 4(2100m) 6(2400m)
Di, 18.06. 4:00 7(2100m) 7(2400m)
Di, 18.06. 3:30 5(2100m) 6(2400m)
Di, 18.06. 3:00 5(2400m) 5(2400m)
Ortszeit Luftdruck NN (hPa) Tendenz (hPa in 3 Std.)
Di, 18.06. 2:00 1020 - 0,5
Mo, 17.06. 20:00 1021 - 1,0
Mo, 17.06. 14:00 1022 - 0,3
Mo, 17.06. 8:00 1022 + 0,6
Mo, 17.06. 2:00 1021 + 0,1
So, 16.06. 20:00 1020 - 0,2
So, 16.06. 14:00 1020 + 1,3
So, 16.06. 8:00 1018 + 1,9
Ortszeit Luftdruck NN (hPa) Tendenz (hPa in 3 Std.)
Di, 18.06. 6:10 1018 keine Meldung
Di, 18.06. 6:00 1018 - 1,1
Di, 18.06. 5:50 1018 keine Meldung
Di, 18.06. 5:40 1018 keine Meldung
Di, 18.06. 5:30 1018 - 1,1
Di, 18.06. 5:20 1018 keine Meldung
Di, 18.06. 5:00 1018 - 1,1
Di, 18.06. 4:30 1019 - 0,8
Di, 18.06. 4:00 1019 - 0,9
Di, 18.06. 3:30 1019 - 0,6
Di, 18.06. 3:00 1019 - 0,6
Ortszeit Schneehöhe (cm)
Di, 18.06. 2:00 -
Mo, 17.06. 20:00 -
Mo, 17.06. 14:00 -
Mo, 17.06. 8:00 -
Mo, 17.06. 2:00 -
So, 16.06. 20:00 -
So, 16.06. 14:00 -
So, 16.06. 8:00 -
Ortszeit Schneehöhe (cm)
Di, 18.06. 6:10 -
Di, 18.06. 6:00 -
Di, 18.06. 5:50 -
Di, 18.06. 5:40 -
Di, 18.06. 5:30 -
Di, 18.06. 5:20 -
Di, 18.06. 5:00 -
Di, 18.06. 4:30 -
Di, 18.06. 4:00 -
Di, 18.06. 3:30 -
Di, 18.06. 3:00 -
Link zu dieser Seite / Seite empfehlen

Das Wetter in ...